sensor_id;sensor_type;location;lat;lon;timestamp;P1;durP1;ratioP1;P2;durP2;ratioP2
79052;SDS011;68451;49.510;6.026;2023-07-29T00:02:00;2.60;;;1.77;;
79052;SDS011;68451;49.510;6.026;2023-07-29T00:04:25;2.72;;;1.60;;
79052;SDS011;68451;49.510;6.026;2023-07-29T00:06:51;2.30;;;1.52;;
79052;SDS011;68451;49.510;6.026;2023-07-29T00:09:16;2.92;;;1.90;;
79052;SDS011;68451;49.510;6.026;2023-07-29T00:11:42;1.70;;;1.38;;
79052;SDS011;68451;49.510;6.026;2023-07-29T00:14:07;2.20;;;1.67;;
79052;SDS011;68451;49.510;6.026;2023-07-29T00:16:33;3.53;;;1.90;;
79052;SDS011;68451;49.510;6.026;2023-07-29T00:18:58;2.30;;;2.10;;
79052;SDS011;68451;49.510;6.026;2023-07-29T00:21:24;2.42;;;1.63;;
79052;SDS011;68451;49.510;6.026;2023-07-29T00:23:49;3.38;;;1.63;;
79052;SDS011;68451;49.510;6.026;2023-07-29T00:26:14;3.13;;;2.13;;
79052;SDS011;68451;49.510;6.026;2023-07-29T00:28:40;3.83;;;1.75;;
79052;SDS011;68451;49.510;6.026;2023-07-29T00:31:06;2.80;;;1.50;;
79052;SDS011;68451;49.510;6.026;2023-07-29T00:33:31;2.88;;;2.10;;
79052;SDS011;68451;49.510;6.026;2023-07-29T00:35:57;2.33;;;2.05;;
79052;SDS011;68451;49.510;6.026;2023-07-29T00:38:26;4.20;;;2.03;;
79052;SDS011;68451;49.510;6.026;2023-07-29T00:40:52;4.07;;;2.10;;
79052;SDS011;68451;49.510;6.026;2023-07-29T00:43:17;2.40;;;1.98;;
79052;SDS011;68451;49.510;6.026;2023-07-29T00:45:43;2.58;;;2.08;;
79052;SDS011;68451;49.510;6.026;2023-07-29T00:48:10;2.75;;;2.17;;
79052;SDS011;68451;49.510;6.026;2023-07-29T00:50:35;3.95;;;2.00;;
79052;SDS011;68451;49.510;6.026;2023-07-29T00:53:01;2.72;;;2.08;;
79052;SDS011;68451;49.510;6.026;2023-07-29T00:55:27;3.53;;;2.20;;
79052;SDS011;68451;49.510;6.026;2023-07-29T00:57:53;3.08;;;1.73;;
79052;SDS011;68451;49.510;6.026;2023-07-29T01:00:19;4.03;;;1.48;;
79052;SDS011;68451;49.510;6.026;2023-07-29T01:02:45;2.25;;;1.98;;
79052;SDS011;68451;49.510;6.026;2023-07-29T01:05:11;2.65;;;2.08;;
79052;SDS011;68451;49.510;6.026;2023-07-29T01:07:40;2.10;;;1.90;;
79052;SDS011;68451;49.510;6.026;2023-07-29T01:13:10;4.88;;;2.60;;
79052;SDS011;68451;49.510;6.026;2023-07-29T01:15:54;3.50;;;1.92;;
79052;SDS011;68451;49.510;6.026;2023-07-29T01:18:28;2.67;;;2.10;;
79052;SDS011;68451;49.510;6.026;2023-07-29T01:20:59;3.55;;;2.42;;
79052;SDS011;68451;49.510;6.026;2023-07-29T01:23:29;2.75;;;2.03;;
79052;SDS011;68451;49.510;6.026;2023-07-29T01:25:56;3.65;;;2.83;;
79052;SDS011;68451;49.510;6.026;2023-07-29T01:28:21;3.20;;;1.90;;
79052;SDS011;68451;49.510;6.026;2023-07-29T01:30:48;4.65;;;2.35;;
79052;SDS011;68451;49.510;6.026;2023-07-29T01:33:26;2.50;;;2.17;;
79052;SDS011;68451;49.510;6.026;2023-07-29T01:35:57;2.25;;;1.70;;
79052;SDS011;68451;49.510;6.026;2023-07-29T01:41:00;2.75;;;2.35;;
79052;SDS011;68451;49.510;6.026;2023-07-29T01:43:28;3.05;;;2.40;;
79052;SDS011;68451;49.510;6.026;2023-07-29T01:45:54;3.05;;;2.00;;
79052;SDS011;68451;49.510;6.026;2023-07-29T01:48:20;2.10;;;1.80;;
79052;SDS011;68451;49.510;6.026;2023-07-29T01:50:46;3.92;;;2.47;;
79052;SDS011;68451;49.510;6.026;2023-07-29T01:53:11;6.95;;;2.60;;
79052;SDS011;68451;49.510;6.026;2023-07-29T01:55:36;3.38;;;2.60;;
79052;SDS011;68451;49.510;6.026;2023-07-29T01:58:02;4.85;;;2.15;;
79052;SDS011;68451;49.510;6.026;2023-07-29T02:00:27;3.63;;;1.83;;
79052;SDS011;68451;49.510;6.026;2023-07-29T02:02:53;2.72;;;2.10;;
79052;SDS011;68451;49.510;6.026;2023-07-29T02:05:18;2.97;;;2.67;;
79052;SDS011;68451;49.510;6.026;2023-07-29T02:07:44;3.65;;;2.25;;
79052;SDS011;68451;49.510;6.026;2023-07-29T02:10:09;3.25;;;2.13;;
79052;SDS011;68451;49.510;6.026;2023-07-29T02:12:35;3.25;;;2.20;;
79052;SDS011;68451;49.510;6.026;2023-07-29T02:15:00;2.58;;;2.10;;
79052;SDS011;68451;49.510;6.026;2023-07-29T02:17:25;4.38;;;2.15;;
79052;SDS011;68451;49.510;6.026;2023-07-29T02:19:51;2.97;;;2.28;;
79052;SDS011;68451;49.510;6.026;2023-07-29T02:22:17;3.45;;;2.67;;
79052;SDS011;68451;49.510;6.026;2023-07-29T02:24:43;4.45;;;2.17;;
79052;SDS011;68451;49.510;6.026;2023-07-29T02:27:10;2.80;;;2.40;;
79052;SDS011;68451;49.510;6.026;2023-07-29T02:29:36;3.35;;;1.73;;
79052;SDS011;68451;49.510;6.026;2023-07-29T02:32:01;3.00;;;2.70;;
79052;SDS011;68451;49.510;6.026;2023-07-29T02:34:28;4.70;;;2.22;;
79052;SDS011;68451;49.510;6.026;2023-07-29T02:36:53;6.88;;;3.78;;
79052;SDS011;68451;49.510;6.026;2023-07-29T02:39:19;6.97;;;3.22;;
79052;SDS011;68451;49.510;6.026;2023-07-29T02:41:45;6.70;;;3.25;;
79052;SDS011;68451;49.510;6.026;2023-07-29T02:44:10;2.72;;;2.35;;
79052;SDS011;68451;49.510;6.026;2023-07-29T02:46:35;2.20;;;1.90;;
79052;SDS011;68451;49.510;6.026;2023-07-29T02:49:01;2.85;;;2.38;;
79052;SDS011;68451;49.510;6.026;2023-07-29T02:51:28;4.60;;;3.00;;
79052;SDS011;68451;49.510;6.026;2023-07-29T02:53:54;3.63;;;2.25;;
79052;SDS011;68451;49.510;6.026;2023-07-29T02:56:19;5.97;;;2.85;;
79052;SDS011;68451;49.510;6.026;2023-07-29T02:58:45;4.57;;;2.65;;
79052;SDS011;68451;49.510;6.026;2023-07-29T03:01:10;4.88;;;2.50;;
79052;SDS011;68451;49.510;6.026;2023-07-29T03:03:35;3.45;;;2.45;;
79052;SDS011;68451;49.510;6.026;2023-07-29T03:06:02;7.90;;;2.78;;
79052;SDS011;68451;49.510;6.026;2023-07-29T03:08:29;10.43;;;2.90;;
79052;SDS011;68451;49.510;6.026;2023-07-29T03:10:55;3.25;;;1.58;;
79052;SDS011;68451;49.510;6.026;2023-07-29T03:13:21;2.05;;;0.90;;
79052;SDS011;68451;49.510;6.026;2023-07-29T03:15:47;3.03;;;1.13;;
79052;SDS011;68451;49.510;6.026;2023-07-29T03:18:12;2.10;;;1.05;;
79052;SDS011;68451;49.510;6.026;2023-07-29T03:20:38;6.03;;;1.58;;
79052;SDS011;68451;49.510;6.026;2023-07-29T03:23:03;4.72;;;1.83;;
79052;SDS011;68451;49.510;6.026;2023-07-29T03:25:29;1.70;;;1.15;;
79052;SDS011;68451;49.510;6.026;2023-07-29T03:27:54;2.03;;;1.23;;
79052;SDS011;68451;49.510;6.026;2023-07-29T03:30:20;2.28;;;0.75;;
79052;SDS011;68451;49.510;6.026;2023-07-29T03:32:46;2.50;;;1.20;;
79052;SDS011;68451;49.510;6.026;2023-07-29T03:35:13;2.38;;;1.17;;
79052;SDS011;68451;49.510;6.026;2023-07-29T03:37:38;2.13;;;1.63;;
79052;SDS011;68451;49.510;6.026;2023-07-29T03:40:05;2.35;;;1.10;;
79052;SDS011;68451;49.510;6.026;2023-07-29T03:42:31;2.03;;;1.15;;
79052;SDS011;68451;49.510;6.026;2023-07-29T03:44:56;3.42;;;1.10;;
79052;SDS011;68451;49.510;6.026;2023-07-29T03:47:22;2.30;;;1.30;;
79052;SDS011;68451;49.510;6.026;2023-07-29T03:49:47;3.60;;;1.30;;
79052;SDS011;68451;49.510;6.026;2023-07-29T03:52:13;1.67;;;0.93;;
79052;SDS011;68451;49.510;6.026;2023-07-29T03:54:38;2.03;;;1.30;;
79052;SDS011;68451;49.510;6.026;2023-07-29T03:57:04;2.17;;;1.42;;
79052;SDS011;68451;49.510;6.026;2023-07-29T03:59:30;2.10;;;1.05;;
79052;SDS011;68451;49.510;6.026;2023-07-29T04:01:55;3.25;;;1.63;;
79052;SDS011;68451;49.510;6.026;2023-07-29T04:04:20;2.30;;;1.33;;
79052;SDS011;68451;49.510;6.026;2023-07-29T04:06:46;1.50;;;1.10;;
79052;SDS011;68451;49.510;6.026;2023-07-29T04:09:11;2.42;;;1.35;;
79052;SDS011;68451;49.510;6.026;2023-07-29T04:11:37;2.00;;;1.50;;
79052;SDS011;68451;49.510;6.026;2023-07-29T04:14:02;2.65;;;1.77;;
79052;SDS011;68451;49.510;6.026;2023-07-29T04:16:28;4.57;;;1.80;;
79052;SDS011;68451;49.510;6.026;2023-07-29T04:18:54;5.30;;;1.75;;
79052;SDS011;68451;49.510;6.026;2023-07-29T04:21:19;1.98;;;1.48;;
79052;SDS011;68451;49.510;6.026;2023-07-29T04:23:45;5.13;;;2.33;;
79052;SDS011;68451;49.510;6.026;2023-07-29T04:26:10;5.10;;;2.45;;
79052;SDS011;68451;49.510;6.026;2023-07-29T04:28:36;4.93;;;3.00;;
79052;SDS011;68451;49.510;6.026;2023-07-29T04:31:02;4.03;;;2.83;;
79052;SDS011;68451;49.510;6.026;2023-07-29T04:33:28;4.22;;;2.97;;
79052;SDS011;68451;49.510;6.026;2023-07-29T04:35:54;3.88;;;2.38;;
79052;SDS011;68451;49.510;6.026;2023-07-29T04:38:20;2.55;;;1.80;;
79052;SDS011;68451;49.510;6.026;2023-07-29T04:40:45;3.00;;;1.52;;
79052;SDS011;68451;49.510;6.026;2023-07-29T04:43:11;2.63;;;1.40;;
79052;SDS011;68451;49.510;6.026;2023-07-29T04:45:41;2.10;;;1.42;;
79052;SDS011;68451;49.510;6.026;2023-07-29T04:48:08;2.17;;;1.27;;
79052;SDS011;68451;49.510;6.026;2023-07-29T04:50:33;2.17;;;1.20;;
79052;SDS011;68451;49.510;6.026;2023-07-29T04:52:59;2.47;;;1.38;;
79052;SDS011;68451;49.510;6.026;2023-07-29T04:55:24;3.00;;;1.73;;
79052;SDS011;68451;49.510;6.026;2023-07-29T04:57:50;1.67;;;1.38;;
79052;SDS011;68451;49.510;6.026;2023-07-29T05:00:15;1.95;;;1.13;;
79052;SDS011;68451;49.510;6.026;2023-07-29T05:05:08;3.70;;;1.70;;
79052;SDS011;68451;49.510;6.026;2023-07-29T05:07:34;2.60;;;1.75;;
79052;SDS011;68451;49.510;6.026;2023-07-29T05:09:59;1.60;;;1.50;;
79052;SDS011;68451;49.510;6.026;2023-07-29T05:12:24;2.28;;;1.67;;
79052;SDS011;68451;49.510;6.026;2023-07-29T05:14:50;4.72;;;2.47;;
79052;SDS011;68451;49.510;6.026;2023-07-29T05:17:16;5.03;;;2.58;;
79052;SDS011;68451;49.510;6.026;2023-07-29T05:19:41;3.00;;;2.25;;
79052;SDS011;68451;49.510;6.026;2023-07-29T05:22:06;4.82;;;2.60;;
79052;SDS011;68451;49.510;6.026;2023-07-29T05:24:32;2.40;;;1.63;;
79052;SDS011;68451;49.510;6.026;2023-07-29T05:26:57;2.70;;;1.88;;
79052;SDS011;68451;49.510;6.026;2023-07-29T05:29:23;2.92;;;1.63;;
79052;SDS011;68451;49.510;6.026;2023-07-29T05:31:48;3.25;;;1.83;;
79052;SDS011;68451;49.510;6.026;2023-07-29T05:34:14;2.78;;;1.42;;
79052;SDS011;68451;49.510;6.026;2023-07-29T05:36:39;2.50;;;2.15;;
79052;SDS011;68451;49.510;6.026;2023-07-29T05:39:05;2.05;;;1.65;;
79052;SDS011;68451;49.510;6.026;2023-07-29T05:41:30;2.15;;;1.90;;
79052;SDS011;68451;49.510;6.026;2023-07-29T05:43:56;2.42;;;1.35;;
79052;SDS011;68451;49.510;6.026;2023-07-29T05:46:21;2.75;;;2.20;;
79052;SDS011;68451;49.510;6.026;2023-07-29T05:48:46;3.30;;;1.70;;
79052;SDS011;68451;49.510;6.026;2023-07-29T05:51:12;2.60;;;1.80;;
79052;SDS011;68451;49.510;6.026;2023-07-29T05:53:37;2.65;;;1.90;;
79052;SDS011;68451;49.510;6.026;2023-07-29T05:56:03;2.00;;;1.65;;
79052;SDS011;68451;49.510;6.026;2023-07-29T05:58:29;4.15;;;1.73;;
79052;SDS011;68451;49.510;6.026;2023-07-29T06:00:56;2.65;;;1.50;;
79052;SDS011;68451;49.510;6.026;2023-07-29T06:03:22;3.00;;;1.65;;
79052;SDS011;68451;49.510;6.026;2023-07-29T06:05:48;4.78;;;1.70;;
79052;SDS011;68451;49.510;6.026;2023-07-29T06:08:14;3.10;;;1.70;;
79052;SDS011;68451;49.510;6.026;2023-07-29T06:10:40;1.80;;;1.50;;
79052;SDS011;68451;49.510;6.026;2023-07-29T06:13:05;3.60;;;1.63;;
79052;SDS011;68451;49.510;6.026;2023-07-29T06:15:31;3.10;;;1.50;;
79052;SDS011;68451;49.510;6.026;2023-07-29T06:17:56;2.40;;;1.98;;
79052;SDS011;68451;49.510;6.026;2023-07-29T06:20:22;3.33;;;1.70;;
79052;SDS011;68451;49.510;6.026;2023-07-29T06:22:47;1.65;;;1.38;;
79052;SDS011;68451;49.510;6.026;2023-07-29T06:25:13;1.98;;;1.58;;
79052;SDS011;68451;49.510;6.026;2023-07-29T06:27:38;3.10;;;1.60;;
79052;SDS011;68451;49.510;6.026;2023-07-29T06:30:04;2.97;;;1.63;;
79052;SDS011;68451;49.510;6.026;2023-07-29T06:32:31;3.67;;;2.38;;
79052;SDS011;68451;49.510;6.026;2023-07-29T06:34:56;3.58;;;2.10;;
79052;SDS011;68451;49.510;6.026;2023-07-29T06:37:22;1.92;;;1.58;;
79052;SDS011;68451;49.510;6.026;2023-07-29T06:39:48;2.70;;;1.58;;
79052;SDS011;68451;49.510;6.026;2023-07-29T06:42:13;3.00;;;1.80;;
79052;SDS011;68451;49.510;6.026;2023-07-29T06:44:39;2.75;;;1.60;;
79052;SDS011;68451;49.510;6.026;2023-07-29T06:47:05;1.45;;;1.35;;
79052;SDS011;68451;49.510;6.026;2023-07-29T06:49:31;2.60;;;1.30;;
79052;SDS011;68451;49.510;6.026;2023-07-29T06:51:56;1.52;;;1.35;;
79052;SDS011;68451;49.510;6.026;2023-07-29T06:54:25;1.90;;;1.50;;
79052;SDS011;68451;49.510;6.026;2023-07-29T06:59:19;1.92;;;1.45;;
79052;SDS011;68451;49.510;6.026;2023-07-29T07:01:44;2.65;;;1.80;;
79052;SDS011;68451;49.510;6.026;2023-07-29T07:04:10;2.22;;;1.40;;
79052;SDS011;68451;49.510;6.026;2023-07-29T07:06:35;2.22;;;1.58;;
79052;SDS011;68451;49.510;6.026;2023-07-29T07:09:01;2.30;;;1.88;;
79052;SDS011;68451;49.510;6.026;2023-07-29T07:11:26;5.97;;;2.45;;
79052;SDS011;68451;49.510;6.026;2023-07-29T07:13:52;3.50;;;1.77;;
79052;SDS011;68451;49.510;6.026;2023-07-29T07:16:17;2.25;;;1.75;;
79052;SDS011;68451;49.510;6.026;2023-07-29T07:18:43;2.50;;;1.67;;
79052;SDS011;68451;49.510;6.026;2023-07-29T07:21:09;3.00;;;1.73;;
79052;SDS011;68451;49.510;6.026;2023-07-29T07:23:34;2.50;;;1.58;;
79052;SDS011;68451;49.510;6.026;2023-07-29T07:26:00;3.67;;;1.90;;
79052;SDS011;68451;49.510;6.026;2023-07-29T07:28:25;4.22;;;1.52;;
79052;SDS011;68451;49.510;6.026;2023-07-29T07:30:51;2.80;;;2.47;;
79052;SDS011;68451;49.510;6.026;2023-07-29T07:33:16;3.05;;;1.98;;
79052;SDS011;68451;49.510;6.026;2023-07-29T07:35:42;3.17;;;1.83;;
79052;SDS011;68451;49.510;6.026;2023-07-29T07:38:08;3.08;;;1.55;;
79052;SDS011;68451;49.510;6.026;2023-07-29T07:40:35;2.63;;;2.00;;
79052;SDS011;68451;49.510;6.026;2023-07-29T07:43:01;1.90;;;1.40;;
79052;SDS011;68451;49.510;6.026;2023-07-29T07:45:27;2.47;;;1.50;;
79052;SDS011;68451;49.510;6.026;2023-07-29T07:47:52;2.70;;;1.80;;
79052;SDS011;68451;49.510;6.026;2023-07-29T07:50:19;1.95;;;1.60;;
79052;SDS011;68451;49.510;6.026;2023-07-29T07:52:44;2.33;;;1.58;;
79052;SDS011;68451;49.510;6.026;2023-07-29T07:55:10;1.90;;;1.52;;
79052;SDS011;68451;49.510;6.026;2023-07-29T07:57:35;1.77;;;1.17;;
79052;SDS011;68451;49.510;6.026;2023-07-29T08:00:01;1.65;;;1.27;;
79052;SDS011;68451;49.510;6.026;2023-07-29T08:02:26;2.08;;;1.88;;
79052;SDS011;68451;49.510;6.026;2023-07-29T08:04:51;1.88;;;1.63;;
79052;SDS011;68451;49.510;6.026;2023-07-29T08:07:17;3.83;;;1.25;;
79052;SDS011;68451;49.510;6.026;2023-07-29T08:09:42;2.00;;;1.60;;
79052;SDS011;68451;49.510;6.026;2023-07-29T08:12:08;2.20;;;1.73;;
79052;SDS011;68451;49.510;6.026;2023-07-29T08:14:33;2.83;;;1.27;;
79052;SDS011;68451;49.510;6.026;2023-07-29T08:16:59;2.10;;;1.80;;
79052;SDS011;68451;49.510;6.026;2023-07-29T08:19:24;1.65;;;1.52;;
79052;SDS011;68451;49.510;6.026;2023-07-29T08:21:50;2.03;;;1.10;;
79052;SDS011;68451;49.510;6.026;2023-07-29T08:24:15;2.35;;;1.35;;
79052;SDS011;68451;49.510;6.026;2023-07-29T08:26:40;2.75;;;1.67;;
79052;SDS011;68451;49.510;6.026;2023-07-29T08:29:06;3.22;;;1.60;;
79052;SDS011;68451;49.510;6.026;2023-07-29T08:31:31;2.33;;;1.58;;
79052;SDS011;68451;49.510;6.026;2023-07-29T08:33:59;1.67;;;1.40;;
79052;SDS011;68451;49.510;6.026;2023-07-29T08:36:25;2.15;;;1.55;;
79052;SDS011;68451;49.510;6.026;2023-07-29T08:38:50;2.90;;;1.38;;
79052;SDS011;68451;49.510;6.026;2023-07-29T08:41:19;4.05;;;1.58;;
79052;SDS011;68451;49.510;6.026;2023-07-29T08:46:34;2.42;;;1.33;;
79052;SDS011;68451;49.510;6.026;2023-07-29T08:49:00;2.53;;;1.45;;
79052;SDS011;68451;49.510;6.026;2023-07-29T08:51:27;2.42;;;1.55;;
79052;SDS011;68451;49.510;6.026;2023-07-29T08:53:54;1.70;;;1.30;;
79052;SDS011;68451;49.510;6.026;2023-07-29T08:56:20;2.35;;;1.60;;
79052;SDS011;68451;49.510;6.026;2023-07-29T08:58:46;1.65;;;1.48;;
79052;SDS011;68451;49.510;6.026;2023-07-29T09:01:12;2.08;;;1.25;;
79052;SDS011;68451;49.510;6.026;2023-07-29T09:03:38;1.90;;;1.40;;
79052;SDS011;68451;49.510;6.026;2023-07-29T09:06:03;1.45;;;1.30;;
79052;SDS011;68451;49.510;6.026;2023-07-29T09:08:29;1.80;;;1.50;;
79052;SDS011;68451;49.510;6.026;2023-07-29T09:10:54;2.08;;;1.73;;
79052;SDS011;68451;49.510;6.026;2023-07-29T09:13:21;2.20;;;1.40;;
79052;SDS011;68451;49.510;6.026;2023-07-29T09:15:46;3.03;;;1.65;;
79052;SDS011;68451;49.510;6.026;2023-07-29T09:18:16;1.98;;;1.58;;
79052;SDS011;68451;49.510;6.026;2023-07-29T09:20:45;1.33;;;1.23;;
79052;SDS011;68451;49.510;6.026;2023-07-29T09:23:12;2.97;;;1.45;;
79052;SDS011;68451;49.510;6.026;2023-07-29T09:25:38;2.53;;;1.73;;
79052;SDS011;68451;49.510;6.026;2023-07-29T09:28:08;1.60;;;1.42;;
79052;SDS011;68451;49.510;6.026;2023-07-29T09:30:35;3.22;;;1.35;;
79052;SDS011;68451;49.510;6.026;2023-07-29T09:33:02;1.73;;;1.60;;
79052;SDS011;68451;49.510;6.026;2023-07-29T09:35:32;3.40;;;1.60;;
79052;SDS011;68451;49.510;6.026;2023-07-29T09:37:59;3.03;;;1.80;;
79052;SDS011;68451;49.510;6.026;2023-07-29T09:40:24;2.50;;;2.00;;
79052;SDS011;68451;49.510;6.026;2023-07-29T09:42:51;2.25;;;1.30;;
79052;SDS011;68451;49.510;6.026;2023-07-29T09:45:19;1.60;;;1.50;;
79052;SDS011;68451;49.510;6.026;2023-07-29T09:47:52;3.40;;;2.28;;
79052;SDS011;68451;49.510;6.026;2023-07-29T09:50:18;2.03;;;1.77;;
79052;SDS011;68451;49.510;6.026;2023-07-29T09:52:48;2.58;;;1.70;;
79052;SDS011;68451;49.510;6.026;2023-07-29T09:55:17;2.25;;;1.40;;
79052;SDS011;68451;49.510;6.026;2023-07-29T09:57:44;1.23;;;1.13;;
79052;SDS011;68451;49.510;6.026;2023-07-29T10:00:10;1.70;;;1.58;;
79052;SDS011;68451;49.510;6.026;2023-07-29T10:02:38;1.85;;;1.48;;
79052;SDS011;68451;49.510;6.026;2023-07-29T10:08:29;1.98;;;1.20;;
79052;SDS011;68451;49.510;6.026;2023-07-29T10:10:58;2.10;;;1.23;;
79052;SDS011;68451;49.510;6.026;2023-07-29T10:13:26;1.92;;;1.27;;
79052;SDS011;68451;49.510;6.026;2023-07-29T10:15:53;2.13;;;1.38;;
79052;SDS011;68451;49.510;6.026;2023-07-29T10:18:21;3.30;;;1.45;;
79052;SDS011;68451;49.510;6.026;2023-07-29T10:20:48;1.95;;;1.15;;
79052;SDS011;68451;49.510;6.026;2023-07-29T10:23:16;1.80;;;1.30;;
79052;SDS011;68451;49.510;6.026;2023-07-29T10:25:46;2.40;;;1.42;;
79052;SDS011;68451;49.510;6.026;2023-07-29T10:28:20;1.42;;;1.08;;
79052;SDS011;68451;49.510;6.026;2023-07-29T10:30:50;1.50;;;1.38;;
79052;SDS011;68451;49.510;6.026;2023-07-29T10:33:17;1.55;;;1.33;;
79052;SDS011;68451;49.510;6.026;2023-07-29T10:35:42;2.30;;;1.92;;
79052;SDS011;68451;49.510;6.026;2023-07-29T10:38:09;1.80;;;1.48;;
79052;SDS011;68451;49.510;6.026;2023-07-29T10:40:48;2.22;;;2.03;;
79052;SDS011;68451;49.510;6.026;2023-07-29T10:43:25;2.25;;;1.52;;
79052;SDS011;68451;49.510;6.026;2023-07-29T10:48:44;1.90;;;1.23;;
79052;SDS011;68451;49.510;6.026;2023-07-29T10:51:28;1.30;;;1.10;;
79052;SDS011;68451;49.510;6.026;2023-07-29T10:54:09;1.48;;;1.30;;
79052;SDS011;68451;49.510;6.026;2023-07-29T10:56:36;2.20;;;1.50;;
79052;SDS011;68451;49.510;6.026;2023-07-29T10:59:31;2.35;;;1.90;;
79052;SDS011;68451;49.510;6.026;2023-07-29T11:01:59;2.53;;;1.80;;
79052;SDS011;68451;49.510;6.026;2023-07-29T11:04:26;2.00;;;1.58;;
79052;SDS011;68451;49.510;6.026;2023-07-29T11:09:55;3.83;;;2.55;;
79052;SDS011;68451;49.510;6.026;2023-07-29T11:15:16;3.85;;;2.20;;
79052;SDS011;68451;49.510;6.026;2023-07-29T11:17:44;1.70;;;1.35;;
79052;SDS011;68451;49.510;6.026;2023-07-29T11:20:31;2.03;;;1.48;;
79052;SDS011;68451;49.510;6.026;2023-07-29T11:22:58;2.28;;;1.23;;
79052;SDS011;68451;49.510;6.026;2023-07-29T11:25:26;3.55;;;1.60;;
79052;SDS011;68451;49.510;6.026;2023-07-29T11:27:52;1.75;;;1.40;;
79052;SDS011;68451;49.510;6.026;2023-07-29T11:30:19;4.72;;;1.83;;
79052;SDS011;68451;49.510;6.026;2023-07-29T11:32:45;1.90;;;1.65;;
79052;SDS011;68451;49.510;6.026;2023-07-29T11:35:15;2.42;;;1.58;;
79052;SDS011;68451;49.510;6.026;2023-07-29T11:37:43;1.90;;;1.50;;
79052;SDS011;68451;49.510;6.026;2023-07-29T11:40:13;3.00;;;2.10;;
79052;SDS011;68451;49.510;6.026;2023-07-29T11:42:40;2.70;;;1.52;;
79052;SDS011;68451;49.510;6.026;2023-07-29T11:45:06;2.92;;;1.48;;
79052;SDS011;68451;49.510;6.026;2023-07-29T11:47:33;2.10;;;1.73;;
79052;SDS011;68451;49.510;6.026;2023-07-29T11:50:01;2.75;;;2.47;;
79052;SDS011;68451;49.510;6.026;2023-07-29T11:52:34;1.92;;;1.73;;
79052;SDS011;68451;49.510;6.026;2023-07-29T11:55:01;2.65;;;1.90;;
79052;SDS011;68451;49.510;6.026;2023-07-29T11:57:28;2.40;;;1.52;;
79052;SDS011;68451;49.510;6.026;2023-07-29T12:00:04;1.65;;;1.30;;
79052;SDS011;68451;49.510;6.026;2023-07-29T12:02:31;2.30;;;1.70;;
79052;SDS011;68451;49.510;6.026;2023-07-29T12:04:58;1.50;;;1.30;;
79052;SDS011;68451;49.510;6.026;2023-07-29T12:07:24;1.48;;;1.38;;
79052;SDS011;68451;49.510;6.026;2023-07-29T12:09:50;1.88;;;1.50;;
79052;SDS011;68451;49.510;6.026;2023-07-29T12:12:15;2.17;;;1.48;;
79052;SDS011;68451;49.510;6.026;2023-07-29T12:14:47;2.50;;;1.90;;
79052;SDS011;68451;49.510;6.026;2023-07-29T12:19:38;2.80;;;2.10;;
79052;SDS011;68451;49.510;6.026;2023-07-29T12:22:05;2.20;;;1.50;;
79052;SDS011;68451;49.510;6.026;2023-07-29T12:24:32;3.47;;;1.58;;
79052;SDS011;68451;49.510;6.026;2023-07-29T12:26:59;2.55;;;1.67;;
79052;SDS011;68451;49.510;6.026;2023-07-29T12:29:25;1.83;;;1.35;;
79052;SDS011;68451;49.510;6.026;2023-07-29T12:32:03;2.17;;;1.30;;
79052;SDS011;68451;49.510;6.026;2023-07-29T12:34:29;1.60;;;1.25;;
79052;SDS011;68451;49.510;6.026;2023-07-29T12:36:56;2.20;;;1.58;;
79052;SDS011;68451;49.510;6.026;2023-07-29T12:39:27;2.50;;;1.60;;
79052;SDS011;68451;49.510;6.026;2023-07-29T12:41:54;2.55;;;1.20;;
79052;SDS011;68451;49.510;6.026;2023-07-29T12:44:22;1.98;;;1.40;;
79052;SDS011;68451;49.510;6.026;2023-07-29T12:46:49;2.30;;;1.60;;
79052;SDS011;68451;49.510;6.026;2023-07-29T12:49:14;2.20;;;1.60;;
79052;SDS011;68451;49.510;6.026;2023-07-29T12:51:40;1.67;;;1.30;;
79052;SDS011;68451;49.510;6.026;2023-07-29T12:54:06;1.60;;;1.50;;
79052;SDS011;68451;49.510;6.026;2023-07-29T12:56:32;3.60;;;2.72;;
79052;SDS011;68451;49.510;6.026;2023-07-29T12:58:58;1.83;;;1.50;;
79052;SDS011;68451;49.510;6.026;2023-07-29T13:01:24;1.70;;;1.27;;
79052;SDS011;68451;49.510;6.026;2023-07-29T13:03:50;1.80;;;1.50;;
79052;SDS011;68451;49.510;6.026;2023-07-29T13:06:16;2.25;;;1.50;;
79052;SDS011;68451;49.510;6.026;2023-07-29T13:08:41;1.10;;;1.00;;
79052;SDS011;68451;49.510;6.026;2023-07-29T13:11:07;2.75;;;1.58;;
79052;SDS011;68451;49.510;6.026;2023-07-29T13:13:33;2.78;;;1.92;;
79052;SDS011;68451;49.510;6.026;2023-07-29T13:15:58;2.10;;;1.20;;
79052;SDS011;68451;49.510;6.026;2023-07-29T13:18:24;1.77;;;1.20;;
79052;SDS011;68451;49.510;6.026;2023-07-29T13:20:50;2.60;;;1.58;;
79052;SDS011;68451;49.510;6.026;2023-07-29T13:23:16;1.83;;;1.20;;
79052;SDS011;68451;49.510;6.026;2023-07-29T13:25:41;2.00;;;1.45;;
79052;SDS011;68451;49.510;6.026;2023-07-29T13:28:08;3.55;;;1.50;;
79052;SDS011;68451;49.510;6.026;2023-07-29T13:30:34;3.40;;;1.67;;
79052;SDS011;68451;49.510;6.026;2023-07-29T13:33:00;2.13;;;1.58;;
79052;SDS011;68451;49.510;6.026;2023-07-29T13:35:25;3.15;;;1.63;;
79052;SDS011;68451;49.510;6.026;2023-07-29T13:37:51;1.73;;;1.40;;
79052;SDS011;68451;49.510;6.026;2023-07-29T13:40:16;3.20;;;1.98;;
79052;SDS011;68451;49.510;6.026;2023-07-29T13:42:42;1.33;;;1.20;;
79052;SDS011;68451;49.510;6.026;2023-07-29T13:45:07;2.55;;;1.90;;
79052;SDS011;68451;49.510;6.026;2023-07-29T13:47:33;1.75;;;1.40;;
79052;SDS011;68451;49.510;6.026;2023-07-29T13:49:59;1.83;;;1.48;;
79052;SDS011;68451;49.510;6.026;2023-07-29T13:52:25;2.03;;;1.42;;
79052;SDS011;68451;49.510;6.026;2023-07-29T13:54:50;2.03;;;1.83;;
79052;SDS011;68451;49.510;6.026;2023-07-29T13:57:15;1.63;;;1.35;;
79052;SDS011;68451;49.510;6.026;2023-07-29T13:59:41;2.63;;;1.33;;
79052;SDS011;68451;49.510;6.026;2023-07-29T14:02:06;2.20;;;1.77;;
79052;SDS011;68451;49.510;6.026;2023-07-29T14:04:32;2.35;;;1.52;;
79052;SDS011;68451;49.510;6.026;2023-07-29T14:06:58;2.72;;;1.42;;
79052;SDS011;68451;49.510;6.026;2023-07-29T14:09:24;2.53;;;1.83;;
79052;SDS011;68451;49.510;6.026;2023-07-29T14:11:50;1.75;;;1.60;;
79052;SDS011;68451;49.510;6.026;2023-07-29T14:14:15;2.00;;;1.60;;
79052;SDS011;68451;49.510;6.026;2023-07-29T14:16:40;2.17;;;1.60;;
79052;SDS011;68451;49.510;6.026;2023-07-29T14:19:06;3.28;;;1.52;;
79052;SDS011;68451;49.510;6.026;2023-07-29T14:21:31;6.18;;;1.40;;
79052;SDS011;68451;49.510;6.026;2023-07-29T14:23:57;1.70;;;1.40;;
79052;SDS011;68451;49.510;6.026;2023-07-29T14:26:22;3.53;;;1.95;;
79052;SDS011;68451;49.510;6.026;2023-07-29T14:28:48;2.58;;;1.67;;
79052;SDS011;68451;49.510;6.026;2023-07-29T14:31:15;1.58;;;1.48;;
79052;SDS011;68451;49.510;6.026;2023-07-29T14:33:42;2.22;;;1.80;;
79052;SDS011;68451;49.510;6.026;2023-07-29T14:36:07;2.58;;;1.77;;
79052;SDS011;68451;49.510;6.026;2023-07-29T14:38:33;1.65;;;1.55;;
79052;SDS011;68451;49.510;6.026;2023-07-29T14:40:58;1.75;;;1.55;;
79052;SDS011;68451;49.510;6.026;2023-07-29T14:43:25;2.28;;;1.92;;
79052;SDS011;68451;49.510;6.026;2023-07-29T14:45:50;3.25;;;1.42;;
79052;SDS011;68451;49.510;6.026;2023-07-29T14:48:16;2.35;;;1.73;;
79052;SDS011;68451;49.510;6.026;2023-07-29T14:50:41;2.28;;;1.60;;
79052;SDS011;68451;49.510;6.026;2023-07-29T14:53:08;2.05;;;1.52;;
79052;SDS011;68451;49.510;6.026;2023-07-29T14:55:37;2.53;;;1.50;;
79052;SDS011;68451;49.510;6.026;2023-07-29T14:58:03;2.80;;;2.00;;
79052;SDS011;68451;49.510;6.026;2023-07-29T15:00:28;2.20;;;1.58;;
79052;SDS011;68451;49.510;6.026;2023-07-29T15:02:54;2.20;;;1.63;;
79052;SDS011;68451;49.510;6.026;2023-07-29T15:05:19;2.30;;;1.60;;
79052;SDS011;68451;49.510;6.026;2023-07-29T15:07:46;1.83;;;1.50;;
79052;SDS011;68451;49.510;6.026;2023-07-29T15:10:14;1.75;;;1.40;;
79052;SDS011;68451;49.510;6.026;2023-07-29T15:12:40;2.75;;;1.80;;